createdAt,value
2022-08-16T00:41:19.306Z,69108.06
2022-08-16T01:20:02.905Z,69108.06
2022-08-16T05:19:57.608Z,69108.06
2022-08-16T05:23:58.751Z,69108.06
2022-08-16T05:28:01.781Z,69108.06
2022-08-16T05:32:31.907Z,69108.06
2022-08-16T05:36:14.463Z,69108.06
2022-08-16T05:40:24.694Z,69108.06
2022-08-16T05:44:22.586Z,69108.06
2022-08-16T05:52:22.338Z,69108.06
2022-08-16T05:56:19.324Z,69108.06
2022-08-16T06:00:22.313Z,69108.06
2022-08-16T06:03:48.129Z,69108.06
2022-08-16T06:07:24.848Z,69108.06
2022-08-16T06:11:02.443Z,69108.06
2022-08-16T06:14:35.463Z,69108.06
2022-08-16T06:18:01.665Z,69108.06
2022-08-16T06:21:28.199Z,69108.06
2022-08-16T06:25:02.831Z,69108.06
2022-08-16T06:28:35.974Z,69108.06
2022-08-16T06:32:04.258Z,69108.06
2022-08-16T06:35:40.313Z,69108.06
2022-08-16T06:39:07.584Z,69108.06
2022-08-16T06:42:39.284Z,69108.06
2022-08-16T06:46:31.764Z,69108.06
2022-08-16T06:49:57.778Z,69108.06
2022-08-16T06:53:23.830Z,69108.06
2022-08-16T06:56:53.930Z,69108.06
2022-08-16T07:00:24.695Z,69108.06
2022-08-16T07:03:55.116Z,69108.06
2022-08-16T07:07:23.294Z,69108.06
2022-08-16T07:10:48.723Z,69108.06
2022-08-16T07:14:23.765Z,69108.06
2022-08-16T07:17:53.418Z,69108.06
2022-08-16T07:21:19.114Z,69108.06
2022-08-16T07:24:45.971Z,69108.06
2022-08-16T07:28:21.010Z,69108.06
2022-08-16T07:31:49.989Z,69108.06
2022-08-16T07:35:19.351Z,69108.06
2022-08-16T07:38:44.884Z,69108.06
2022-08-16T07:42:28.438Z,69108.06
2022-08-16T07:45:56.776Z,69108.06
2022-08-16T07:49:22.109Z,69108.06
2022-08-16T07:52:50.262Z,69108.06
2022-08-16T07:56:16.075Z,69108.06
2022-08-16T07:59:46.340Z,69108.06
2022-08-16T08:03:12.534Z,69108.06
2022-08-16T08:06:40.493Z,69108.06
2022-08-16T08:10:06.282Z,69108.06
2022-08-16T08:13:42.753Z,69108.06
2022-08-16T08:17:08.833Z,69108.06
2022-08-16T08:20:34.358Z,69108.06
2022-08-16T08:24:01.590Z,69108.06
2022-08-16T08:27:27.023Z,69108.06
2022-08-16T08:31:00.921Z,69108.06
2022-08-16T08:34:27.391Z,69108.06
2022-08-16T08:37:55.784Z,69108.06
2022-08-16T08:41:29.252Z,69108.06
2022-08-16T08:44:56.910Z,69108.06
2022-08-16T08:48:35.051Z,69108.06
2022-08-16T08:52:08.119Z,69108.06
2022-08-16T08:55:35.243Z,69108.06
2022-08-16T08:59:12.738Z,69108.06
2022-08-16T09:02:39.820Z,69108.06
2022-08-16T09:06:05.931Z,69108.06
2022-08-16T09:09:33.562Z,69108.06
2022-08-16T09:12:59.235Z,69108.06
2022-08-16T09:17:01.277Z,69108.06
2022-08-16T09:20:14.290Z,69108.06
2022-08-16T09:23:41.030Z,69108.06
2022-08-16T09:26:45.592Z,97976.13
2022-08-16T09:29:23.785Z,98335.00
2022-08-16T09:32:01.809Z,98325.91
2022-08-16T09:34:29.512Z,98332.00
2022-08-16T09:36:57.941Z,98304.66
2022-08-16T09:39:27.817Z,98333.19
2022-08-16T09:42:10.470Z,98338.59
2022-08-16T09:45:11.027Z,98337.44
2022-08-16T09:47:24.368Z,98324.94
2022-08-16T09:49:51.329Z,98326.09
2022-08-16T09:52:18.162Z,98324.63
2022-08-16T09:54:49.128Z,98330.72
2022-08-16T09:57:17.528Z,98313.44
2022-08-16T09:59:44.342Z,98321.06
2022-08-16T10:02:26.748Z,98310.72
2022-08-16T10:04:57.861Z,98318.97
2022-08-16T10:07:38.325Z,98325.03
2022-08-16T10:10:14.134Z,98327.19
2022-08-16T10:13:04.651Z,98324.09
2022-08-16T10:15:32.514Z,98322.13
2022-08-16T10:19:01.567Z,69108.06
2022-08-16T10:22:32.224Z,69108.06
2022-08-16T10:27:20.325Z,69108.06
2022-08-16T10:30:00.756Z,69108.06
2022-08-16T10:32:42.901Z,98322.13
2022-08-16T10:35:10.082Z,98323.13
2022-08-16T10:37:36.924Z,98324.41
2022-08-16T10:40:28.400Z,98342.88
2022-08-16T10:42:55.249Z,98333.63
2022-08-16T10:45:22.836Z,98329.69
2022-08-16T10:48:00.886Z,98335.91
2022-08-16T10:50:32.360Z,98330.59
2022-08-16T10:53:00.540Z,98327.44
2022-08-16T10:55:40.433Z,98333.53
2022-08-16T10:58:14.063Z,98330.34
2022-08-16T11:00:46.192Z,98338.28
2022-08-16T11:06:06.269Z,98339.31
2022-08-16T11:08:43.265Z,98334.13
2022-08-16T11:11:19.524Z,98328.97
2022-08-16T11:14:06.304Z,98328.91
2022-08-16T11:19:22.976Z,98329.38
2022-08-16T11:24:42.339Z,98332.03
2022-08-16T11:27:23.414Z,98320.16
2022-08-16T11:29:55.304Z,98328.72
2022-08-16T11:32:33.838Z,98328.72
2022-08-16T11:39:04.494Z,98328.72
2022-08-16T11:41:38.370Z,98312.09
2022-08-16T11:44:11.569Z,98323.28
2022-08-16T11:47:45.483Z,69108.06
2022-08-16T11:51:11.319Z,69108.06
2022-08-16T11:53:45.901Z,98323.28
2022-08-16T11:56:14.837Z,98293.66
2022-08-16T11:58:42.025Z,98296.84
2022-08-16T12:01:10.585Z,98295.53
2022-08-16T12:03:38.207Z,98298.19
2022-08-16T12:06:25.033Z,98299.16
2022-08-16T12:09:01.032Z,98300.22
2022-08-16T12:11:31.596Z,98290.41
2022-08-16T12:14:04.704Z,98292.31
2022-08-16T12:16:34.182Z,98302.63
2022-08-16T12:19:06.025Z,98295.84
2022-08-16T12:21:57.713Z,98295.63
2022-08-16T12:24:22.397Z,98293.94
2022-08-16T12:26:52.041Z,98286.09
2022-08-16T12:29:19.770Z,98289.38
2022-08-16T12:31:59.229Z,98287.00
2022-08-16T12:34:36.821Z,98266.63
2022-08-16T12:37:10.366Z,98277.63
2022-08-16T12:39:38.668Z,98273.06
2022-08-16T12:42:19.389Z,98279.75
2022-08-16T12:44:49.068Z,98274.91
2022-08-16T12:47:37.170Z,98264.00
2022-08-16T12:50:14.695Z,98263.25
2022-08-16T12:52:44.386Z,98267.59
2022-08-16T12:55:19.575Z,98258.47
2022-08-16T12:57:47.210Z,98258.22
2022-08-16T13:00:33.333Z,98257.59
2022-08-16T13:03:03.199Z,98250.84
2022-08-16T13:05:36.657Z,98250.63
2022-08-16T13:08:03.879Z,98252.41
2022-08-16T13:10:37.147Z,98248.25
2022-08-16T13:13:08.935Z,98234.09
2022-08-16T13:15:57.191Z,98235.22
2022-08-16T13:18:33.865Z,98253.72
2022-08-16T13:21:05.157Z,98241.44
2022-08-16T13:23:32.985Z,98245.16
2022-08-16T13:25:59.876Z,98230.56
2022-08-16T13:28:26.801Z,98239.09
2022-08-16T13:30:58.030Z,98239.09
2022-08-16T13:33:30.606Z,98239.72
2022-08-16T13:36:01.212Z,98234.50
2022-08-16T13:38:31.350Z,98250.50
2022-08-16T13:41:00.321Z,98236.72
2022-08-16T13:43:29.059Z,98236.97
2022-08-16T13:46:04.738Z,98235.72
2022-08-16T13:48:43.303Z,98222.81
2022-08-16T13:51:16.760Z,98236.72
2022-08-16T13:53:54.433Z,98229.53
2022-08-16T13:56:35.983Z,98230.34
2022-08-16T13:59:16.597Z,98206.13
2022-08-16T14:01:55.026Z,98222.56
2022-08-16T14:04:32.836Z,98217.63
2022-08-16T14:07:02.217Z,98221.38
2022-08-16T14:09:30.640Z,98210.81
2022-08-16T14:12:00.920Z,98211.66
2022-08-16T14:14:30.021Z,98213.69
2022-08-16T14:17:01.646Z,98197.31
2022-08-16T14:19:29.939Z,98201.41
2022-08-16T14:22:14.069Z,98201.41
2022-08-16T14:24:46.993Z,98192.63
2022-08-16T14:27:19.607Z,98197.53
2022-08-16T14:29:50.042Z,98205.94
2022-08-16T14:32:33.411Z,98196.53
2022-08-16T14:35:09.541Z,98191.78
2022-08-16T14:37:38.199Z,98199.00
2022-08-16T14:40:09.015Z,98195.09
2022-08-16T14:42:36.949Z,98198.56
2022-08-16T14:45:09.535Z,98186.09
2022-08-16T14:47:38.274Z,98202.19
2022-08-16T14:50:16.118Z,98177.16
2022-08-16T14:52:56.581Z,98191.31
2022-08-16T14:55:37.052Z,98173.91
2022-08-16T14:58:18.888Z,98202.22
2022-08-16T15:00:50.761Z,98204.28
2022-08-16T15:03:21.745Z,98197.94
2022-08-16T15:05:49.844Z,98181.56
2022-08-16T15:08:21.265Z,98188.72
2022-08-16T15:11:03.471Z,98191.78
2022-08-16T15:13:30.465Z,98182.97
2022-08-16T15:16:02.255Z,98176.84
2022-08-16T15:18:31.927Z,98181.34
2022-08-16T15:21:02.058Z,98187.50
2022-08-16T15:23:29.510Z,98189.97
2022-08-16T15:26:02.777Z,98192.44
2022-08-16T15:28:33.517Z,98186.38
2022-08-16T15:31:03.219Z,98181.56
2022-08-16T15:33:38.990Z,98187.72
2022-08-16T15:36:09.285Z,98197.31
2022-08-16T15:39:03.845Z,98176.66
2022-08-16T15:41:43.516Z,98184.81
2022-08-16T15:44:17.971Z,98187.66
2022-08-16T15:46:55.805Z,98190.72
2022-08-16T15:49:37.253Z,98186.19
2022-08-16T15:52:24.998Z,98188.44
2022-08-16T15:54:57.660Z,98165.50
2022-08-16T15:57:26.914Z,98169.22
2022-08-16T15:59:56.032Z,98181.50
2022-08-16T16:02:31.765Z,98180.66
2022-08-16T16:05:07.353Z,98163.44
2022-08-16T16:07:37.702Z,98173.28
2022-08-16T16:10:12.940Z,98173.69
2022-08-16T16:12:51.607Z,98161.38
2022-08-16T16:15:29.541Z,98173.91
2022-08-16T16:17:57.092Z,98174.09
2022-08-16T16:20:28.060Z,98179.81
2022-08-16T16:23:04.808Z,98176.53
2022-08-16T16:25:39.675Z,98177.16
2022-08-16T16:29:08.483Z,98160.50
2022-08-16T16:31:04.626Z,98177.16
2022-08-16T16:33:34.083Z,98172.88
2022-08-16T16:36:03.872Z,98173.69
2022-08-16T16:38:34.709Z,98183.72
2022-08-16T16:41:09.268Z,98156.06
2022-08-16T16:43:40.847Z,98169.00
2022-08-16T16:46:40.898Z,98160.19
2022-08-16T16:48:56.427Z,98152.03
2022-08-16T16:51:24.493Z,98152.41
2022-08-16T16:53:56.946Z,98165.13
2022-08-16T16:56:30.195Z,98170.66
2022-08-16T16:59:09.196Z,98174.97
2022-08-16T17:02:00.082Z,98161.66
2022-08-16T17:04:32.905Z,98173.31
2022-08-16T17:07:01.789Z,98164.53
2022-08-16T17:09:29.853Z,98176.59
2022-08-16T17:11:58.178Z,98167.38
2022-08-16T17:14:33.215Z,98172.13
2022-08-16T17:17:04.805Z,98176.19
2022-08-16T17:19:32.072Z,98175.56
2022-08-16T17:22:00.259Z,98176.59
2022-08-16T17:24:31.234Z,98178.66
2022-08-16T17:27:06.830Z,98183.34
2022-08-16T17:29:33.850Z,98173.72
2022-08-16T17:32:02.517Z,98167.56
2022-08-16T17:34:50.834Z,98182.31
2022-08-16T17:37:22.082Z,98185.16
2022-08-16T17:40:30.167Z,98175.75
2022-08-16T17:42:53.236Z,98185.16
2022-08-16T17:45:21.132Z,98170.84
2022-08-16T17:47:48.132Z,98181.06
2022-08-16T17:50:15.586Z,98181.47
2022-08-16T17:52:48.921Z,98183.72
2022-08-16T17:55:24.138Z,98186.38
2022-08-16T17:57:52.218Z,98183.47
2022-08-16T18:00:20.762Z,98178.91
2022-08-16T18:02:50.192Z,98199.38
2022-08-16T18:05:18.655Z,98183.19
2022-08-16T18:07:45.983Z,98201.44
2022-08-16T18:10:14.759Z,98192.59
2022-08-16T18:13:01.431Z,98173.06
2022-08-16T18:15:29.000Z,98189.25
2022-08-16T18:17:55.923Z,98188.41
2022-08-16T18:20:42.796Z,98191.84
2022-08-16T18:23:14.997Z,98184.78
2022-08-16T18:25:49.598Z,98197.09
2022-08-16T18:28:17.307Z,98199.47
2022-08-16T18:30:47.991Z,98194.06
2022-08-16T18:33:20.841Z,98204.63
2022-08-16T18:35:47.692Z,98210.34
2022-08-16T18:38:14.613Z,98217.00
2022-08-16T18:40:41.966Z,98191.28
2022-08-16T18:43:14.640Z,98210.50
2022-08-16T18:45:44.482Z,98207.34
2022-08-16T18:48:13.264Z,98205.03
2022-08-16T18:50:59.650Z,98206.97
2022-08-16T18:53:32.165Z,98213.22
2022-08-16T18:56:01.516Z,98212.91
2022-08-16T18:58:30.693Z,98226.09
2022-08-16T19:00:57.991Z,98215.19
2022-08-16T19:03:29.573Z,98224.56
2022-08-16T19:06:03.362Z,98226.31
2022-08-16T19:08:31.377Z,98220.38
2022-08-16T19:10:58.374Z,98218.91
2022-08-16T19:13:28.319Z,98227.50
2022-08-16T19:15:58.543Z,98234.56
2022-08-16T19:18:27.421Z,98236.84
2022-08-16T19:20:59.183Z,98232.38
2022-08-16T19:23:30.219Z,98236.50
2022-08-16T19:26:24.882Z,98232.28
2022-08-16T19:28:58.725Z,98240.69
2022-08-16T19:31:33.789Z,98244.44
2022-08-16T19:34:01.783Z,98238.22
2022-08-16T19:36:36.924Z,98249.69
2022-08-16T19:39:09.307Z,98255.69
2022-08-16T19:41:39.440Z,98266.06
2022-08-16T19:44:07.372Z,98259.00
2022-08-16T19:46:35.469Z,98260.34
2022-08-16T19:49:02.816Z,98257.44
2022-08-16T19:51:29.758Z,98260.53
2022-08-16T19:53:56.597Z,98257.22
2022-08-16T19:56:25.705Z,98225.47
2022-08-16T19:59:17.474Z,98244.28
2022-08-16T20:01:42.475Z,98257.25
2022-08-16T20:04:12.270Z,98257.13
2022-08-16T20:06:39.996Z,98260.00
2022-08-16T20:09:07.334Z,98263.88
2022-08-16T20:11:35.314Z,98263.09
2022-08-16T20:14:02.926Z,98277.13
2022-08-16T20:16:30.038Z,98256.75
2022-08-16T20:18:57.145Z,98264.38
2022-08-16T20:21:24.398Z,98261.28
2022-08-16T20:23:51.341Z,98258.34
2022-08-16T20:26:18.802Z,98262.97
2022-08-16T20:28:53.508Z,98268.78
2022-08-16T20:33:53.311Z,98271.78
2022-08-16T20:36:20.376Z,98274.31
2022-08-16T20:38:48.321Z,98285.53
2022-08-16T20:41:16.700Z,98279.41
2022-08-16T20:43:45.639Z,98282.59
2022-08-16T20:46:13.952Z,98270.59
2022-08-16T20:48:40.824Z,98285.75
2022-08-16T20:51:10.465Z,98284.59
2022-08-16T20:53:42.519Z,98269.63
2022-08-16T20:56:11.490Z,98268.25
2022-08-16T20:58:38.526Z,98282.31
2022-08-16T21:01:07.054Z,98284.50
2022-08-16T21:03:34.891Z,98285.63
2022-08-16T21:06:02.216Z,98280.19
2022-08-16T21:08:51.759Z,98292.09
2022-08-16T21:11:17.283Z,98288.13
2022-08-16T21:13:44.173Z,98283.66
2022-08-16T21:16:11.165Z,98281.88
2022-08-16T21:18:38.656Z,98284.66
2022-08-16T21:21:05.508Z,98302.66
2022-08-16T21:23:32.435Z,98293.41
2022-08-16T21:25:59.881Z,98284.16
2022-08-16T21:28:39.959Z,98302.31
2022-08-16T21:31:11.683Z,98293.06
2022-08-16T21:33:39.027Z,98292.56
2022-08-16T21:36:06.182Z,98278.72
2022-08-16T21:38:33.006Z,98301.81
2022-08-16T21:41:01.494Z,98293.06
2022-08-16T21:43:32.116Z,98310.19
2022-08-16T21:46:04.357Z,98310.88
2022-08-16T21:48:34.406Z,98310.88
2022-08-16T21:51:11.766Z,98305.59
2022-08-16T21:53:39.099Z,98302.63
2022-08-16T21:56:07.071Z,98297.59
2022-08-16T21:58:37.137Z,98322.69
2022-08-16T22:01:04.682Z,98318.34
2022-08-16T22:03:32.813Z,98317.84
2022-08-16T22:06:13.456Z,98320.66
2022-08-16T22:08:49.450Z,98314.38
2022-08-16T22:11:24.066Z,98320.13
2022-08-16T22:13:58.055Z,98321.63
2022-08-16T22:16:31.377Z,98316.16
2022-08-16T22:18:58.716Z,98307.72
2022-08-16T22:21:25.777Z,98312.94
2022-08-16T22:23:57.356Z,98334.03
2022-08-16T22:26:30.896Z,98333.03
2022-08-16T22:29:08.511Z,98331.75
2022-08-16T22:31:38.145Z,98331.06
2022-08-16T22:34:05.768Z,98316.97
2022-08-16T22:36:33.927Z,98334.31
2022-08-16T22:39:05.466Z,98335.13
2022-08-16T22:41:42.257Z,98335.13
2022-08-16T22:44:09.522Z,98346.78
2022-08-16T22:46:37.605Z,98339.47
2022-08-16T22:49:06.467Z,98344.22
2022-08-16T22:51:34.583Z,98347.19
2022-08-16T22:54:44.117Z,98338.75
2022-08-16T22:56:48.470Z,98331.47
2022-08-16T22:59:15.317Z,98326.84
2022-08-16T23:01:42.529Z,98332.91
2022-08-16T23:04:09.423Z,98324.50
2022-08-16T23:06:36.284Z,98328.47
2022-08-16T23:09:03.512Z,98328.31
2022-08-16T23:11:30.327Z,98312.88
2022-08-16T23:13:57.326Z,98327.41
2022-08-16T23:16:34.740Z,98325.88
2022-08-16T23:19:09.619Z,98324.91
2022-08-16T23:21:39.848Z,98319.44
2022-08-16T23:24:08.314Z,98322.00
2022-08-16T23:26:45.653Z,98306.34
2022-08-16T23:29:24.398Z,98314.06
2022-08-16T23:32:11.511Z,98323.84
2022-08-16T23:34:38.679Z,98301.19
2022-08-16T23:37:06.478Z,98310.06
2022-08-16T23:39:33.413Z,98319.75
2022-08-16T23:42:00.699Z,98314.97
2022-08-16T23:44:55.517Z,98311.81
2022-08-16T23:47:14.369Z,98313.34
2022-08-16T23:50:01.700Z,98302.19
2022-08-16T23:52:39.397Z,98292.41
2022-08-16T23:55:16.464Z,98294.13
2022-08-16T23:57:44.547Z,98298.50
